Pescabona Cinco — CNA4021 — position and weather

sailwx.info

Track history (hours):
 
Tides and Currents Weather Stations Pressure Air Temp Water Temp Dewpoint Dewpoint Depression Visibility Wind Speed Wind Dir Waves Ship Positions

Pescabona Cinco

Last reported at 2017-Oct-29 19:16 UTC. Time now 2017-Nov-17 19:40 UTC.
Position N 34°41' W 006°53'.
Warning: this ship's position is 19 days out of date.

Length 28 m.

Type: Fishing. MMSI: 242048100.

Date/timePositionNaut miles runAvg speedWind from/ knotsBaromVisibWave heightAir tempDewpointWater temp
2017-Oct-29 19:16N 34°41' W 006°53'6 1.0
2017-Oct-29 13:53N 34°46' W 006°50'5 0.6
2017-Oct-29 05:57N 34°46' W 006°57'5 0.5
2017-Oct-28 18:55N 34°42' W 006°52'3 4.1
2017-Oct-28 18:09N 34°43' W 006°49'2 3.3
2017-Oct-28 17:29N 34°44' W 006°47'1 2.7
2017-Oct-28 17:00N 34°46' W 006°47'2 3.4
2017-Oct-28 16:28N 34°44' W 006°48'2 3.3
2017-Oct-28 16:00N 34°43' W 006°48'2 3.3
2017-Oct-28 15:30N 34°41' W 006°49'1 1.0
2017-Oct-28 14:23N 34°40' W 006°48'1 3.3
2017-Oct-28 13:59N 34°41' W 006°48'2 3.3
2017-Oct-28 13:30N 34°42' W 006°47'2 3.3
2017-Oct-28 13:00N 34°44' W 006°45'1 2.1
2017-Oct-28 12:30N 34°45' W 006°46'15 0.7
2017-Oct-27 14:20N 34°32' W 006°57'1 0.1
2017-Oct-27 00:37N 34°31' W 006°57'0 3.0
2017-Oct-27 00:30N 34°31' W 006°57'10 3.2
2017-Oct-26 21:27N 34°41' W 006°55'  
Track history (hours):
 
Tides and Currents Weather Stations Pressure Air Temp Water Temp Dewpoint Dewpoint Depression Visibility Wind Speed Wind Dir Waves Ship Positions

Pescabona Cinco

Last reported at 2017-Oct-29 19:16 UTC. Time now 2017-Nov-17 19:40 UTC.
Position N 34°41' W 006°53'.
Warning: this ship's position is 19 days out of date.

Length 28 m.

Type: Fishing. MMSI: 242048100.

Date/timePositionNaut miles runAvg speedWind from/ knotsBaromVisibWave heightAir tempDewpointWater temp
2017-Oct-29 19:16N 34°41' W 006°53'6 1.0
2017-Oct-29 13:53N 34°46' W 006°50'5 0.6
2017-Oct-29 05:57N 34°46' W 006°57'5 0.5
2017-Oct-28 18:55N 34°42' W 006°52'3 4.1
2017-Oct-28 18:09N 34°43' W 006°49'2 3.3
2017-Oct-28 17:29N 34°44' W 006°47'1 2.7
2017-Oct-28 17:00N 34°46' W 006°47'2 3.4
2017-Oct-28 16:28N 34°44' W 006°48'2 3.3
2017-Oct-28 16:00N 34°43' W 006°48'2 3.3
2017-Oct-28 15:30N 34°41' W 006°49'1 1.0
2017-Oct-28 14:23N 34°40' W 006°48'1 3.3
2017-Oct-28 13:59N 34°41' W 006°48'2 3.3
2017-Oct-28 13:30N 34°42' W 006°47'2 3.3
2017-Oct-28 13:00N 34°44' W 006°45'1 2.1
2017-Oct-28 12:30N 34°45' W 006°46'15 0.7
2017-Oct-27 14:20N 34°32' W 006°57'1 0.1
2017-Oct-27 00:37N 34°31' W 006°57'0 3.0
2017-Oct-27 00:30N 34°31' W 006°57'10 3.2
2017-Oct-26 21:27N 34°41' W 006°55'  

Dump ship's entire track history